sensor_id;sensor_type;location;lat;lon;timestamp;P1;durP1;ratioP1;P2;durP2;ratioP2
40599;SDS011;26309;50.924;4.754;2024-02-23T00:01:40;6.60;;;1.60;;
40599;SDS011;26309;50.924;4.754;2024-02-23T00:04:06;3.30;;;1.30;;
40599;SDS011;26309;50.924;4.754;2024-02-23T00:06:34;2.57;;;1.33;;
40599;SDS011;26309;50.924;4.754;2024-02-23T00:08:59;4.13;;;1.60;;
40599;SDS011;26309;50.924;4.754;2024-02-23T00:11:26;5.47;;;1.60;;
40599;SDS011;26309;50.924;4.754;2024-02-23T00:13:53;5.50;;;1.70;;
40599;SDS011;26309;50.924;4.754;2024-02-23T00:16:19;3.50;;;1.70;;
40599;SDS011;26309;50.924;4.754;2024-02-23T00:18:45;3.97;;;1.70;;
40599;SDS011;26309;50.924;4.754;2024-02-23T00:21:11;3.43;;;1.80;;
40599;SDS011;26309;50.924;4.754;2024-02-23T00:23:36;3.47;;;1.70;;
40599;SDS011;26309;50.924;4.754;2024-02-23T00:26:02;4.30;;;1.60;;
40599;SDS011;26309;50.924;4.754;2024-02-23T00:28:28;4.07;;;1.80;;
40599;SDS011;26309;50.924;4.754;2024-02-23T00:30:55;7.07;;;2.00;;
40599;SDS011;26309;50.924;4.754;2024-02-23T00:33:21;6.90;;;2.23;;
40599;SDS011;26309;50.924;4.754;2024-02-23T00:35:47;7.30;;;1.90;;
40599;SDS011;26309;50.924;4.754;2024-02-23T00:38:13;6.03;;;1.80;;
40599;SDS011;26309;50.924;4.754;2024-02-23T00:40:40;6.20;;;2.00;;
40599;SDS011;26309;50.924;4.754;2024-02-23T00:43:06;5.27;;;1.70;;
40599;SDS011;26309;50.924;4.754;2024-02-23T00:45:32;5.73;;;1.60;;
40599;SDS011;26309;50.924;4.754;2024-02-23T00:47:58;9.17;;;1.93;;
40599;SDS011;26309;50.924;4.754;2024-02-23T00:50:24;4.03;;;1.33;;
40599;SDS011;26309;50.924;4.754;2024-02-23T00:52:53;4.27;;;1.53;;
40599;SDS011;26309;50.924;4.754;2024-02-23T00:55:19;4.20;;;1.60;;
40599;SDS011;26309;50.924;4.754;2024-02-23T00:57:45;3.33;;;1.50;;
40599;SDS011;26309;50.924;4.754;2024-02-23T01:00:11;3.37;;;1.30;;
40599;SDS011;26309;50.924;4.754;2024-02-23T01:02:37;8.80;;;2.00;;
40599;SDS011;26309;50.924;4.754;2024-02-23T01:05:05;2.77;;;1.30;;
40599;SDS011;26309;50.924;4.754;2024-02-23T01:07:34;5.70;;;1.37;;
40599;SDS011;26309;50.924;4.754;2024-02-23T01:10:00;2.50;;;1.23;;
40599;SDS011;26309;50.924;4.754;2024-02-23T01:12:26;3.60;;;1.30;;
40599;SDS011;26309;50.924;4.754;2024-02-23T01:14:53;3.70;;;1.27;;
40599;SDS011;26309;50.924;4.754;2024-02-23T01:17:18;5.23;;;1.40;;
40599;SDS011;26309;50.924;4.754;2024-02-23T01:19:44;5.73;;;1.50;;
40599;SDS011;26309;50.924;4.754;2024-02-23T01:22:11;5.87;;;1.50;;
40599;SDS011;26309;50.924;4.754;2024-02-23T01:24:36;8.97;;;1.73;;
40599;SDS011;26309;50.924;4.754;2024-02-23T01:27:02;5.33;;;1.80;;
40599;SDS011;26309;50.924;4.754;2024-02-23T01:29:28;4.27;;;1.63;;
40599;SDS011;26309;50.924;4.754;2024-02-23T01:31:54;4.30;;;1.90;;
40599;SDS011;26309;50.924;4.754;2024-02-23T01:34:20;8.73;;;2.20;;
40599;SDS011;26309;50.924;4.754;2024-02-23T01:36:47;6.40;;;1.97;;
40599;SDS011;26309;50.924;4.754;2024-02-23T01:39:13;5.23;;;2.20;;
40599;SDS011;26309;50.924;4.754;2024-02-23T01:41:39;6.67;;;2.20;;
40599;SDS011;26309;50.924;4.754;2024-02-23T01:44:05;3.07;;;1.70;;
40599;SDS011;26309;50.924;4.754;2024-02-23T01:46:31;7.87;;;1.97;;
40599;SDS011;26309;50.924;4.754;2024-02-23T01:48:59;6.07;;;1.93;;
40599;SDS011;26309;50.924;4.754;2024-02-23T01:51:25;7.97;;;1.93;;
40599;SDS011;26309;50.924;4.754;2024-02-23T01:53:51;4.93;;;1.80;;
40599;SDS011;26309;50.924;4.754;2024-02-23T01:56:17;5.40;;;1.87;;
40599;SDS011;26309;50.924;4.754;2024-02-23T01:58:44;9.83;;;1.87;;
40599;SDS011;26309;50.924;4.754;2024-02-23T02:01:11;4.73;;;1.87;;
40599;SDS011;26309;50.924;4.754;2024-02-23T02:03:38;4.77;;;1.83;;
40599;SDS011;26309;50.924;4.754;2024-02-23T02:06:07;7.30;;;2.27;;
40599;SDS011;26309;50.924;4.754;2024-02-23T02:08:35;8.37;;;2.50;;
40599;SDS011;26309;50.924;4.754;2024-02-23T02:11:01;9.57;;;2.30;;
40599;SDS011;26309;50.924;4.754;2024-02-23T02:13:30;7.13;;;2.10;;
40599;SDS011;26309;50.924;4.754;2024-02-23T02:15:57;7.20;;;2.37;;
40599;SDS011;26309;50.924;4.754;2024-02-23T02:18:25;8.40;;;2.77;;
40599;SDS011;26309;50.924;4.754;2024-02-23T02:20:52;4.93;;;2.00;;
40599;SDS011;26309;50.924;4.754;2024-02-23T02:23:24;3.97;;;2.10;;
40599;SDS011;26309;50.924;4.754;2024-02-23T02:25:55;5.30;;;2.27;;
40599;SDS011;26309;50.924;4.754;2024-02-23T02:28:23;8.37;;;2.40;;
40599;SDS011;26309;50.924;4.754;2024-02-23T02:30:50;6.57;;;2.23;;
40599;SDS011;26309;50.924;4.754;2024-02-23T02:33:20;7.87;;;2.20;;
40599;SDS011;26309;50.924;4.754;2024-02-23T02:35:47;8.43;;;1.90;;
40599;SDS011;26309;50.924;4.754;2024-02-23T02:38:13;7.90;;;2.20;;
40599;SDS011;26309;50.924;4.754;2024-02-23T02:40:39;7.70;;;2.27;;
40599;SDS011;26309;50.924;4.754;2024-02-23T02:43:05;7.80;;;2.17;;
40599;SDS011;26309;50.924;4.754;2024-02-23T02:45:31;5.50;;;1.83;;
40599;SDS011;26309;50.924;4.754;2024-02-23T02:47:57;6.07;;;1.93;;
40599;SDS011;26309;50.924;4.754;2024-02-23T02:50:22;5.87;;;2.13;;
40599;SDS011;26309;50.924;4.754;2024-02-23T02:52:48;8.83;;;1.87;;
40599;SDS011;26309;50.924;4.754;2024-02-23T02:55:14;14.63;;;2.60;;
40599;SDS011;26309;50.924;4.754;2024-02-23T02:57:40;8.67;;;1.90;;
40599;SDS011;26309;50.924;4.754;2024-02-23T03:00:09;8.93;;;2.07;;
40599;SDS011;26309;50.924;4.754;2024-02-23T03:02:36;6.03;;;2.07;;
40599;SDS011;26309;50.924;4.754;2024-02-23T03:05:02;5.33;;;1.60;;
40599;SDS011;26309;50.924;4.754;2024-02-23T03:07:28;9.13;;;1.93;;
40599;SDS011;26309;50.924;4.754;2024-02-23T03:09:53;7.30;;;1.60;;
40599;SDS011;26309;50.924;4.754;2024-02-23T03:12:20;8.67;;;1.80;;
40599;SDS011;26309;50.924;4.754;2024-02-23T03:14:45;3.30;;;1.63;;
40599;SDS011;26309;50.924;4.754;2024-02-23T03:17:11;12.53;;;2.27;;
40599;SDS011;26309;50.924;4.754;2024-02-23T03:19:37;9.13;;;2.10;;
40599;SDS011;26309;50.924;4.754;2024-02-23T03:22:04;7.03;;;1.67;;
40599;SDS011;26309;50.924;4.754;2024-02-23T03:24:30;7.90;;;1.70;;
40599;SDS011;26309;50.924;4.754;2024-02-23T03:26:56;9.57;;;1.97;;
40599;SDS011;26309;50.924;4.754;2024-02-23T03:29:22;13.00;;;2.57;;
40599;SDS011;26309;50.924;4.754;2024-02-23T03:31:55;5.90;;;1.83;;
40599;SDS011;26309;50.924;4.754;2024-02-23T03:34:21;10.60;;;2.10;;
40599;SDS011;26309;50.924;4.754;2024-02-23T03:36:47;8.30;;;2.03;;
40599;SDS011;26309;50.924;4.754;2024-02-23T03:39:13;5.27;;;1.57;;
40599;SDS011;26309;50.924;4.754;2024-02-23T03:41:39;7.37;;;2.00;;
40599;SDS011;26309;50.924;4.754;2024-02-23T03:44:05;6.07;;;1.73;;
40599;SDS011;26309;50.924;4.754;2024-02-23T03:46:30;10.20;;;2.30;;
40599;SDS011;26309;50.924;4.754;2024-02-23T03:48:56;9.37;;;1.70;;
40599;SDS011;26309;50.924;4.754;2024-02-23T03:51:22;6.93;;;1.97;;
40599;SDS011;26309;50.924;4.754;2024-02-23T03:53:49;10.47;;;2.10;;
40599;SDS011;26309;50.924;4.754;2024-02-23T03:56:15;8.90;;;2.00;;
40599;SDS011;26309;50.924;4.754;2024-02-23T03:58:41;8.93;;;1.97;;
40599;SDS011;26309;50.924;4.754;2024-02-23T04:01:07;5.60;;;1.50;;
40599;SDS011;26309;50.924;4.754;2024-02-23T04:03:33;10.43;;;2.00;;
40599;SDS011;26309;50.924;4.754;2024-02-23T04:05:59;8.70;;;2.10;;
40599;SDS011;26309;50.924;4.754;2024-02-23T04:08:25;7.93;;;1.90;;
40599;SDS011;26309;50.924;4.754;2024-02-23T04:10:51;4.63;;;2.20;;
40599;SDS011;26309;50.924;4.754;2024-02-23T04:13:17;8.07;;;2.10;;
40599;SDS011;26309;50.924;4.754;2024-02-23T04:15:43;15.83;;;2.33;;
40599;SDS011;26309;50.924;4.754;2024-02-23T04:18:09;8.53;;;2.37;;
40599;SDS011;26309;50.924;4.754;2024-02-23T04:20:38;8.40;;;2.27;;
40599;SDS011;26309;50.924;4.754;2024-02-23T04:23:04;10.40;;;2.40;;
40599;SDS011;26309;50.924;4.754;2024-02-23T04:25:30;6.60;;;2.00;;
40599;SDS011;26309;50.924;4.754;2024-02-23T04:27:57;6.07;;;1.83;;
40599;SDS011;26309;50.924;4.754;2024-02-23T04:30:23;11.60;;;2.27;;
40599;SDS011;26309;50.924;4.754;2024-02-23T04:32:49;8.20;;;2.10;;
40599;SDS011;26309;50.924;4.754;2024-02-23T04:35:15;5.60;;;1.77;;
40599;SDS011;26309;50.924;4.754;2024-02-23T04:37:43;10.07;;;2.20;;
40599;SDS011;26309;50.924;4.754;2024-02-23T04:40:10;6.53;;;1.57;;
40599;SDS011;26309;50.924;4.754;2024-02-23T04:42:37;11.27;;;2.40;;
40599;SDS011;26309;50.924;4.754;2024-02-23T04:45:03;6.93;;;2.17;;
40599;SDS011;26309;50.924;4.754;2024-02-23T04:47:30;7.63;;;2.20;;
40599;SDS011;26309;50.924;4.754;2024-02-23T04:49:55;10.87;;;2.23;;
40599;SDS011;26309;50.924;4.754;2024-02-23T04:52:22;13.87;;;2.60;;
40599;SDS011;26309;50.924;4.754;2024-02-23T04:54:47;10.00;;;2.30;;
40599;SDS011;26309;50.924;4.754;2024-02-23T04:57:13;7.03;;;2.13;;
40599;SDS011;26309;50.924;4.754;2024-02-23T04:59:39;7.43;;;2.10;;
40599;SDS011;26309;50.924;4.754;2024-02-23T05:02:05;9.10;;;2.17;;
40599;SDS011;26309;50.924;4.754;2024-02-23T05:04:34;9.60;;;1.80;;
40599;SDS011;26309;50.924;4.754;2024-02-23T05:07:00;8.83;;;2.10;;
40599;SDS011;26309;50.924;4.754;2024-02-23T05:09:26;6.83;;;1.70;;
40599;SDS011;26309;50.924;4.754;2024-02-23T05:11:52;7.27;;;1.80;;
40599;SDS011;26309;50.924;4.754;2024-02-23T05:14:18;7.40;;;2.20;;
40599;SDS011;26309;50.924;4.754;2024-02-23T05:16:44;9.27;;;2.63;;
40599;SDS011;26309;50.924;4.754;2024-02-23T05:19:09;6.53;;;2.27;;
40599;SDS011;26309;50.924;4.754;2024-02-23T05:21:35;6.37;;;2.00;;
40599;SDS011;26309;50.924;4.754;2024-02-23T05:24:01;9.30;;;2.50;;
40599;SDS011;26309;50.924;4.754;2024-02-23T05:26:27;6.00;;;1.90;;
40599;SDS011;26309;50.924;4.754;2024-02-23T05:28:53;9.70;;;2.00;;
40599;SDS011;26309;50.924;4.754;2024-02-23T05:31:19;5.60;;;1.90;;
40599;SDS011;26309;50.924;4.754;2024-02-23T05:33:45;9.00;;;2.13;;
40599;SDS011;26309;50.924;4.754;2024-02-23T05:36:11;8.47;;;1.90;;
40599;SDS011;26309;50.924;4.754;2024-02-23T05:38:36;8.90;;;2.23;;
40599;SDS011;26309;50.924;4.754;2024-02-23T05:41:02;6.97;;;1.80;;
40599;SDS011;26309;50.924;4.754;2024-02-23T05:43:30;5.03;;;2.10;;
40599;SDS011;26309;50.924;4.754;2024-02-23T05:45:56;8.50;;;2.03;;
40599;SDS011;26309;50.924;4.754;2024-02-23T05:48:23;10.00;;;2.10;;
40599;SDS011;26309;50.924;4.754;2024-02-23T05:50:49;13.20;;;2.30;;
40599;SDS011;26309;50.924;4.754;2024-02-23T05:53:15;12.33;;;2.23;;
40599;SDS011;26309;50.924;4.754;2024-02-23T05:55:41;6.87;;;1.90;;
40599;SDS011;26309;50.924;4.754;2024-02-23T05:58:06;6.77;;;2.00;;
40599;SDS011;26309;50.924;4.754;2024-02-23T06:00:33;7.37;;;2.10;;
40599;SDS011;26309;50.924;4.754;2024-02-23T06:02:59;10.27;;;2.03;;
40599;SDS011;26309;50.924;4.754;2024-02-23T06:05:25;8.87;;;2.20;;
40599;SDS011;26309;50.924;4.754;2024-02-23T06:07:51;10.67;;;2.07;;
40599;SDS011;26309;50.924;4.754;2024-02-23T06:10:17;7.10;;;2.20;;
40599;SDS011;26309;50.924;4.754;2024-02-23T06:12:43;11.27;;;2.23;;
40599;SDS011;26309;50.924;4.754;2024-02-23T06:15:09;8.83;;;1.90;;
40599;SDS011;26309;50.924;4.754;2024-02-23T06:17:35;7.37;;;2.27;;
40599;SDS011;26309;50.924;4.754;2024-02-23T06:20:00;10.63;;;1.93;;
40599;SDS011;26309;50.924;4.754;2024-02-23T06:22:26;9.97;;;2.27;;
40599;SDS011;26309;50.924;4.754;2024-02-23T06:24:52;9.60;;;2.10;;
40599;SDS011;26309;50.924;4.754;2024-02-23T06:27:18;5.83;;;2.10;;
40599;SDS011;26309;50.924;4.754;2024-02-23T06:29:43;12.00;;;2.23;;
40599;SDS011;26309;50.924;4.754;2024-02-23T06:32:09;8.63;;;1.87;;
40599;SDS011;26309;50.924;4.754;2024-02-23T06:34:35;10.70;;;2.50;;
40599;SDS011;26309;50.924;4.754;2024-02-23T06:37:01;8.30;;;2.30;;
40599;SDS011;26309;50.924;4.754;2024-02-23T06:39:28;6.67;;;2.03;;
40599;SDS011;26309;50.924;4.754;2024-02-23T06:41:54;6.93;;;1.90;;
40599;SDS011;26309;50.924;4.754;2024-02-23T06:44:19;9.77;;;2.13;;
40599;SDS011;26309;50.924;4.754;2024-02-23T06:46:45;7.57;;;2.10;;
40599;SDS011;26309;50.924;4.754;2024-02-23T06:49:11;9.67;;;2.30;;
40599;SDS011;26309;50.924;4.754;2024-02-23T06:51:37;11.67;;;2.60;;
40599;SDS011;26309;50.924;4.754;2024-02-23T06:54:05;9.33;;;2.30;;
40599;SDS011;26309;50.924;4.754;2024-02-23T06:56:33;8.60;;;2.33;;
40599;SDS011;26309;50.924;4.754;2024-02-23T06:58:59;9.60;;;2.20;;
40599;SDS011;26309;50.924;4.754;2024-02-23T07:01:25;8.90;;;2.20;;
40599;SDS011;26309;50.924;4.754;2024-02-23T07:03:52;9.43;;;2.20;;
40599;SDS011;26309;50.924;4.754;2024-02-23T07:06:18;7.57;;;2.10;;
40599;SDS011;26309;50.924;4.754;2024-02-23T07:08:45;8.10;;;2.33;;
40599;SDS011;26309;50.924;4.754;2024-02-23T07:11:11;4.33;;;1.80;;
40599;SDS011;26309;50.924;4.754;2024-02-23T07:13:37;8.87;;;2.10;;
40599;SDS011;26309;50.924;4.754;2024-02-23T07:16:03;9.20;;;2.37;;
40599;SDS011;26309;50.924;4.754;2024-02-23T07:18:29;6.73;;;1.83;;
40599;SDS011;26309;50.924;4.754;2024-02-23T07:20:54;12.17;;;2.53;;
40599;SDS011;26309;50.924;4.754;2024-02-23T07:23:20;11.13;;;2.30;;
40599;SDS011;26309;50.924;4.754;2024-02-23T07:25:47;8.57;;;2.20;;
40599;SDS011;26309;50.924;4.754;2024-02-23T07:28:16;6.40;;;1.50;;
40599;SDS011;26309;50.924;4.754;2024-02-23T07:30:45;6.20;;;1.90;;
40599;SDS011;26309;50.924;4.754;2024-02-23T07:33:12;6.00;;;1.90;;
40599;SDS011;26309;50.924;4.754;2024-02-23T07:35:38;8.43;;;1.83;;
40599;SDS011;26309;50.924;4.754;2024-02-23T07:38:04;12.87;;;2.33;;
40599;SDS011;26309;50.924;4.754;2024-02-23T07:40:29;7.67;;;2.00;;
40599;SDS011;26309;50.924;4.754;2024-02-23T07:42:57;8.87;;;2.33;;
40599;SDS011;26309;50.924;4.754;2024-02-23T07:45:22;10.57;;;2.37;;
40599;SDS011;26309;50.924;4.754;2024-02-23T07:47:48;11.70;;;2.40;;
40599;SDS011;26309;50.924;4.754;2024-02-23T07:50:14;15.90;;;3.17;;
40599;SDS011;26309;50.924;4.754;2024-02-23T07:52:41;5.90;;;2.40;;
40599;SDS011;26309;50.924;4.754;2024-02-23T07:55:07;6.37;;;2.17;;
40599;SDS011;26309;50.924;4.754;2024-02-23T07:57:33;10.13;;;2.33;;
40599;SDS011;26309;50.924;4.754;2024-02-23T07:59:59;10.87;;;2.30;;
40599;SDS011;26309;50.924;4.754;2024-02-23T08:02:25;7.13;;;1.83;;
40599;SDS011;26309;50.924;4.754;2024-02-23T08:04:51;8.57;;;2.10;;
40599;SDS011;26309;50.924;4.754;2024-02-23T08:07:17;6.20;;;2.00;;
40599;SDS011;26309;50.924;4.754;2024-02-23T08:09:43;5.93;;;2.27;;
40599;SDS011;26309;50.924;4.754;2024-02-23T08:12:09;12.33;;;2.27;;
40599;SDS011;26309;50.924;4.754;2024-02-23T08:14:36;7.77;;;2.27;;
40599;SDS011;26309;50.924;4.754;2024-02-23T08:17:05;9.70;;;2.33;;
40599;SDS011;26309;50.924;4.754;2024-02-23T08:19:31;8.20;;;2.10;;
40599;SDS011;26309;50.924;4.754;2024-02-23T08:21:57;8.83;;;2.23;;
40599;SDS011;26309;50.924;4.754;2024-02-23T08:24:22;10.07;;;2.10;;
40599;SDS011;26309;50.924;4.754;2024-02-23T08:26:48;7.30;;;1.70;;
40599;SDS011;26309;50.924;4.754;2024-02-23T08:29:14;11.73;;;2.33;;
40599;SDS011;26309;50.924;4.754;2024-02-23T08:31:40;8.07;;;2.13;;
40599;SDS011;26309;50.924;4.754;2024-02-23T08:34:05;14.93;;;2.17;;
40599;SDS011;26309;50.924;4.754;2024-02-23T08:36:31;12.73;;;2.27;;
40599;SDS011;26309;50.924;4.754;2024-02-23T08:38:57;7.90;;;2.00;;
40599;SDS011;26309;50.924;4.754;2024-02-23T08:41:23;5.50;;;1.80;;
40599;SDS011;26309;50.924;4.754;2024-02-23T08:43:49;13.63;;;2.20;;
40599;SDS011;26309;50.924;4.754;2024-02-23T08:46:15;8.33;;;2.30;;
40599;SDS011;26309;50.924;4.754;2024-02-23T08:48:41;12.90;;;1.93;;
40599;SDS011;26309;50.924;4.754;2024-02-23T08:51:06;7.73;;;1.93;;
40599;SDS011;26309;50.924;4.754;2024-02-23T08:53:32;5.90;;;2.23;;
40599;SDS011;26309;50.924;4.754;2024-02-23T08:55:58;4.63;;;1.53;;
40599;SDS011;26309;50.924;4.754;2024-02-23T08:58:24;11.27;;;2.00;;
40599;SDS011;26309;50.924;4.754;2024-02-23T09:00:49;6.07;;;2.00;;
40599;SDS011;26309;50.924;4.754;2024-02-23T09:03:15;5.00;;;1.93;;
40599;SDS011;26309;50.924;4.754;2024-02-23T09:05:41;6.90;;;1.93;;
40599;SDS011;26309;50.924;4.754;2024-02-23T09:08:07;5.83;;;2.10;;
40599;SDS011;26309;50.924;4.754;2024-02-23T09:10:33;5.30;;;2.00;;
40599;SDS011;26309;50.924;4.754;2024-02-23T09:15:32;5.03;;;1.83;;
40599;SDS011;26309;50.924;4.754;2024-02-23T09:17:58;6.43;;;1.70;;
40599;SDS011;26309;50.924;4.754;2024-02-23T09:20:24;7.70;;;1.83;;
40599;SDS011;26309;50.924;4.754;2024-02-23T09:22:50;6.97;;;1.83;;
40599;SDS011;26309;50.924;4.754;2024-02-23T09:25:15;6.77;;;1.90;;
40599;SDS011;26309;50.924;4.754;2024-02-23T09:27:41;10.80;;;2.00;;
40599;SDS011;26309;50.924;4.754;2024-02-23T09:30:11;4.50;;;1.77;;
40599;SDS011;26309;50.924;4.754;2024-02-23T09:32:38;10.30;;;1.80;;
40599;SDS011;26309;50.924;4.754;2024-02-23T09:35:03;6.27;;;1.80;;
40599;SDS011;26309;50.924;4.754;2024-02-23T09:37:31;9.37;;;2.27;;
40599;SDS011;26309;50.924;4.754;2024-02-23T09:39:57;4.90;;;2.03;;
40599;SDS011;26309;50.924;4.754;2024-02-23T09:42:23;6.03;;;1.70;;
40599;SDS011;26309;50.924;4.754;2024-02-23T09:44:58;8.20;;;2.13;;
40599;SDS011;26309;50.924;4.754;2024-02-23T09:47:28;7.30;;;1.60;;
40599;SDS011;26309;50.924;4.754;2024-02-23T09:49:54;11.27;;;2.13;;
40599;SDS011;26309;50.924;4.754;2024-02-23T09:52:21;10.50;;;1.97;;
40599;SDS011;26309;50.924;4.754;2024-02-23T09:54:50;5.70;;;2.00;;
40599;SDS011;26309;50.924;4.754;2024-02-23T09:57:16;4.70;;;1.80;;
40599;SDS011;26309;50.924;4.754;2024-02-23T09:59:44;7.93;;;2.07;;
40599;SDS011;26309;50.924;4.754;2024-02-23T10:02:14;8.23;;;2.27;;
40599;SDS011;26309;50.924;4.754;2024-02-23T10:04:43;9.90;;;2.50;;
40599;SDS011;26309;50.924;4.754;2024-02-23T10:07:10;4.20;;;1.93;;
40599;SDS011;26309;50.924;4.754;2024-02-23T10:09:39;9.37;;;1.90;;
40599;SDS011;26309;50.924;4.754;2024-02-23T10:12:05;14.70;;;2.10;;
40599;SDS011;26309;50.924;4.754;2024-02-23T10:14:31;10.43;;;2.40;;
40599;SDS011;26309;50.924;4.754;2024-02-23T10:16:57;9.53;;;2.00;;
40599;SDS011;26309;50.924;4.754;2024-02-23T10:19:23;10.80;;;2.30;;
40599;SDS011;26309;50.924;4.754;2024-02-23T10:21:54;11.37;;;1.90;;
40599;SDS011;26309;50.924;4.754;2024-02-23T10:24:21;7.13;;;1.80;;
40599;SDS011;26309;50.924;4.754;2024-02-23T10:26:49;6.80;;;1.80;;
40599;SDS011;26309;50.924;4.754;2024-02-23T10:29:15;6.43;;;1.60;;
40599;SDS011;26309;50.924;4.754;2024-02-23T10:31:40;8.70;;;1.87;;
40599;SDS011;26309;50.924;4.754;2024-02-23T10:34:07;9.43;;;2.00;;
40599;SDS011;26309;50.924;4.754;2024-02-23T10:36:40;2.67;;;1.60;;
40599;SDS011;26309;50.924;4.754;2024-02-23T10:39:10;3.67;;;1.63;;
40599;SDS011;26309;50.924;4.754;2024-02-23T10:41:41;5.67;;;2.00;;
40599;SDS011;26309;50.924;4.754;2024-02-23T10:44:12;7.57;;;1.80;;
40599;SDS011;26309;50.924;4.754;2024-02-23T10:46:41;5.33;;;1.83;;
40599;SDS011;26309;50.924;4.754;2024-02-23T10:49:07;7.30;;;1.80;;
40599;SDS011;26309;50.924;4.754;2024-02-23T10:51:33;7.87;;;2.13;;
40599;SDS011;26309;50.924;4.754;2024-02-23T10:53:59;7.43;;;1.83;;
40599;SDS011;26309;50.924;4.754;2024-02-23T10:56:26;5.55;;;2.05;;
40599;SDS011;26309;50.924;4.754;2024-02-23T10:58:52;9.73;;;1.95;;
40599;SDS011;26309;50.924;4.754;2024-02-23T11:01:18;7.60;;;1.87;;
40599;SDS011;26309;50.924;4.754;2024-02-23T11:03:45;10.98;;;1.80;;
40599;SDS011;26309;50.924;4.754;2024-02-23T11:06:15;4.82;;;1.73;;
40599;SDS011;26309;50.924;4.754;2024-02-23T11:08:47;6.68;;;1.70;;
40599;SDS011;26309;50.924;4.754;2024-02-23T11:11:15;9.52;;;1.67;;
40599;SDS011;26309;50.924;4.754;2024-02-23T11:13:43;9.13;;;1.63;;
40599;SDS011;26309;50.924;4.754;2024-02-23T11:16:10;7.18;;;1.70;;
40599;SDS011;26309;50.924;4.754;2024-02-23T11:18:36;7.13;;;1.80;;
40599;SDS011;26309;50.924;4.754;2024-02-23T11:21:05;5.35;;;1.77;;
40599;SDS011;26309;50.924;4.754;2024-02-23T11:23:42;8.55;;;1.73;;
40599;SDS011;26309;50.924;4.754;2024-02-23T11:26:10;6.05;;;1.75;;
40599;SDS011;26309;50.924;4.754;2024-02-23T11:28:58;5.90;;;1.98;;
40599;SDS011;26309;50.924;4.754;2024-02-23T11:31:24;5.93;;;1.90;;
40599;SDS011;26309;50.924;4.754;2024-02-23T11:33:54;5.70;;;1.50;;
40599;SDS011;26309;50.924;4.754;2024-02-23T11:36:27;7.57;;;1.50;;
40599;SDS011;26309;50.924;4.754;2024-02-23T11:38:56;5.05;;;1.33;;
40599;SDS011;26309;50.924;4.754;2024-02-23T11:41:23;5.38;;;1.58;;
40599;SDS011;26309;50.924;4.754;2024-02-23T11:43:53;7.82;;;1.70;;
40599;SDS011;26309;50.924;4.754;2024-02-23T11:46:20;6.60;;;2.10;;
40599;SDS011;26309;50.924;4.754;2024-02-23T11:48:47;5.93;;;1.70;;
40599;SDS011;26309;50.924;4.754;2024-02-23T11:51:22;7.80;;;1.80;;
40599;SDS011;26309;50.924;4.754;2024-02-23T11:53:49;6.30;;;1.80;;
40599;SDS011;26309;50.924;4.754;2024-02-23T11:56:16;7.23;;;1.80;;
40599;SDS011;26309;50.924;4.754;2024-02-23T11:58:43;3.67;;;1.57;;
40599;SDS011;26309;50.924;4.754;2024-02-23T12:01:11;5.93;;;1.90;;
40599;SDS011;26309;50.924;4.754;2024-02-23T12:03:37;7.40;;;1.90;;
40599;SDS011;26309;50.924;4.754;2024-02-23T12:06:04;4.37;;;1.60;;
40599;SDS011;26309;50.924;4.754;2024-02-23T12:08:31;4.33;;;1.73;;
40599;SDS011;26309;50.924;4.754;2024-02-23T12:11:03;8.63;;;2.00;;
40599;SDS011;26309;50.924;4.754;2024-02-23T12:13:36;8.57;;;1.90;;
40599;SDS011;26309;50.924;4.754;2024-02-23T12:16:02;4.88;;;1.50;;
40599;SDS011;26309;50.924;4.754;2024-02-23T12:18:28;5.13;;;1.50;;
40599;SDS011;26309;50.924;4.754;2024-02-23T12:21:07;5.07;;;1.48;;
40599;SDS011;26309;50.924;4.754;2024-02-23T12:26:09;3.85;;;1.40;;
40599;SDS011;26309;50.924;4.754;2024-02-23T12:28:38;4.88;;;1.30;;
40599;SDS011;26309;50.924;4.754;2024-02-23T12:31:05;6.78;;;1.90;;
40599;SDS011;26309;50.924;4.754;2024-02-23T12:33:31;8.35;;;1.50;;
40599;SDS011;26309;50.924;4.754;2024-02-23T12:35:59;4.28;;;1.80;;
40599;SDS011;26309;50.924;4.754;2024-02-23T12:38:26;6.47;;;1.58;;
40599;SDS011;26309;50.924;4.754;2024-02-23T12:40:52;3.92;;;1.50;;
40599;SDS011;26309;50.924;4.754;2024-02-23T12:43:18;6.72;;;1.70;;
40599;SDS011;26309;50.924;4.754;2024-02-23T12:45:49;3.90;;;1.45;;
40599;SDS011;26309;50.924;4.754;2024-02-23T12:48:18;5.75;;;1.52;;
40599;SDS011;26309;50.924;4.754;2024-02-23T12:50:45;5.63;;;1.60;;
40599;SDS011;26309;50.924;4.754;2024-02-23T12:53:13;3.08;;;1.60;;
40599;SDS011;26309;50.924;4.754;2024-02-23T12:56:09;5.13;;;1.42;;
40599;SDS011;26309;50.924;4.754;2024-02-23T12:58:39;5.30;;;1.33;;
40599;SDS011;26309;50.924;4.754;2024-02-23T13:01:06;4.75;;;1.60;;
40599;SDS011;26309;50.924;4.754;2024-02-23T13:03:33;4.80;;;1.42;;
40599;SDS011;26309;50.924;4.754;2024-02-23T13:06:00;5.03;;;1.35;;
40599;SDS011;26309;50.924;4.754;2024-02-23T13:08:27;4.07;;;1.48;;
40599;SDS011;26309;50.924;4.754;2024-02-23T13:10:53;4.43;;;1.52;;
40599;SDS011;26309;50.924;4.754;2024-02-23T13:13:20;8.68;;;1.85;;
40599;SDS011;26309;50.924;4.754;2024-02-23T13:15:47;5.72;;;1.63;;
40599;SDS011;26309;50.924;4.754;2024-02-23T13:18:14;5.68;;;1.65;;
40599;SDS011;26309;50.924;4.754;2024-02-23T13:20:40;4.35;;;1.65;;
40599;SDS011;26309;50.924;4.754;2024-02-23T13:23:09;6.32;;;1.40;;
40599;SDS011;26309;50.924;4.754;2024-02-23T13:25:37;2.10;;;1.40;;
40599;SDS011;26309;50.924;4.754;2024-02-23T13:28:06;5.45;;;1.52;;
40599;SDS011;26309;50.924;4.754;2024-02-23T13:30:36;6.68;;;1.95;;
40599;SDS011;26309;50.924;4.754;2024-02-23T13:33:02;4.45;;;1.50;;
40599;SDS011;26309;50.924;4.754;2024-02-23T13:35:29;8.65;;;2.03;;
40599;SDS011;26309;50.924;4.754;2024-02-23T13:37:56;8.02;;;1.75;;
40599;SDS011;26309;50.924;4.754;2024-02-23T13:40:24;4.65;;;1.42;;
40599;SDS011;26309;50.924;4.754;2024-02-23T13:42:50;8.23;;;1.88;;
40599;SDS011;26309;50.924;4.754;2024-02-23T13:45:18;3.47;;;1.23;;
40599;SDS011;26309;50.924;4.754;2024-02-23T13:48:05;4.93;;;1.75;;
40599;SDS011;26309;50.924;4.754;2024-02-23T13:50:31;6.63;;;1.70;;
40599;SDS011;26309;50.924;4.754;2024-02-23T13:52:58;3.55;;;1.48;;
40599;SDS011;26309;50.924;4.754;2024-02-23T13:55:23;4.30;;;1.52;;
40599;SDS011;26309;50.924;4.754;2024-02-23T13:57:49;7.53;;;1.50;;
40599;SDS011;26309;50.924;4.754;2024-02-23T14:00:16;4.57;;;1.50;;
40599;SDS011;26309;50.924;4.754;2024-02-23T14:02:43;4.93;;;1.40;;
40599;SDS011;26309;50.924;4.754;2024-02-23T14:05:09;4.93;;;1.30;;
40599;SDS011;26309;50.924;4.754;2024-02-23T14:07:35;3.22;;;1.40;;
40599;SDS011;26309;50.924;4.754;2024-02-23T14:10:02;3.63;;;1.50;;
40599;SDS011;26309;50.924;4.754;2024-02-23T14:12:28;5.07;;;1.48;;
40599;SDS011;26309;50.924;4.754;2024-02-23T14:14:55;8.13;;;1.65;;
40599;SDS011;26309;50.924;4.754;2024-02-23T14:17:20;5.05;;;1.52;;
40599;SDS011;26309;50.924;4.754;2024-02-23T14:19:46;8.50;;;1.50;;
40599;SDS011;26309;50.924;4.754;2024-02-23T14:22:12;6.22;;;1.52;;
40599;SDS011;26309;50.924;4.754;2024-02-23T14:24:38;4.18;;;1.27;;
40599;SDS011;26309;50.924;4.754;2024-02-23T14:27:04;4.28;;;1.17;;
40599;SDS011;26309;50.924;4.754;2024-02-23T14:29:30;6.03;;;1.65;;
40599;SDS011;26309;50.924;4.754;2024-02-23T14:31:55;7.07;;;1.42;;
40599;SDS011;26309;50.924;4.754;2024-02-23T14:34:21;5.53;;;1.45;;
40599;SDS011;26309;50.924;4.754;2024-02-23T14:36:49;3.08;;;1.02;;
40599;SDS011;26309;50.924;4.754;2024-02-23T14:39:15;4.25;;;1.55;;
40599;SDS011;26309;50.924;4.754;2024-02-23T14:41:41;2.92;;;1.15;;
40599;SDS011;26309;50.924;4.754;2024-02-23T14:44:07;3.88;;;1.13;;
40599;SDS011;26309;50.924;4.754;2024-02-23T14:46:33;2.50;;;1.27;;
40599;SDS011;26309;50.924;4.754;2024-02-23T14:48:59;4.30;;;1.45;;